Time;durP1;ratioP1;P1;durP2;ratioP2;P2;SDS_P1;SDS_P2;PMS_P1;PMS_P2;Temp;Humidity;BMP_temperature;BMP_pressure;BME280_temperature;BME280_humidity;BME280_pressure;Samples;Min_cycle;Max_cycle;Signal;HPM_P1;HPM_P2
2022/09/07 00:01:15;;;;;;;;;;;19.50;99.90;;;;;;4979849;28;19918;-88
2022/09/07 00:03:41;;;;;;;;;;;19.50;99.90;;;;;;4994564;28;20456;-89
2022/09/07 00:06:07;;;;;;;;;;;19.50;99.90;;;;;;4995901;28;19940;-87
2022/09/07 00:08:33;;;;;;;;;;;19.60;99.90;;;;;;4993587;28;19928;-86
2022/09/07 00:11:00;;;;;;;;;;;19.50;99.90;;;;;;4993819;28;19922;-86
2022/09/07 00:13:27;;;;;;;;;;;19.40;99.90;;;;;;4993299;28;19918;-86
2022/09/07 00:15:53;;;;;;;;;;;19.50;99.90;;;;;;4994034;28;19979;-86
2022/09/07 00:18:19;;;;;;;;;;;19.50;99.90;;;;;;4984978;28;20774;-85
2022/09/07 00:20:44;;;;;;;;;;;19.60;99.90;;;;;;4993294;28;19960;-86
2022/09/07 00:23:10;;;;;;;;;;;19.70;99.90;;;;;;4992249;28;20008;-86
2022/09/07 00:25:37;;;;;;;;;;;19.60;99.90;;;;;;4975962;28;19953;-85
2022/09/07 00:28:03;;;;;;;;;;;19.60;99.90;;;;;;4993868;28;19913;-86
2022/09/07 00:30:29;;;;;;;;;;;19.50;99.90;;;;;;4991998;28;20003;-86
2022/09/07 00:32:55;;;;;;;;;;;19.40;99.90;;;;;;4992192;28;19917;-85
2022/09/07 00:35:20;;;;;;;;;;;19.30;99.90;;;;;;4992918;28;19995;-86
2022/09/07 00:37:46;;;;;;;;;;;19.20;99.90;;;;;;4993384;28;19922;-86
2022/09/07 00:40:11;;;;;;;;;;;19.20;99.90;;;;;;4993168;28;20293;-86
2022/09/07 00:42:37;;;;;;;;;;;19.20;99.90;;;;;;4993400;28;20625;-87
2022/09/07 00:45:08;;;;;;;;;;;19.30;99.90;;;;;;4991429;28;20540;-87
2022/09/07 00:47:46;;;;;;;;;;;19.40;99.90;;;;;;4999132;28;20004;-90
2022/09/07 00:50:15;;;;;;;;;;;19.40;99.90;;;;;;4994575;28;19926;-88
2022/09/07 00:52:41;;;;;;;;;;;19.30;99.90;;;;;;4993408;28;19925;-88
2022/09/07 00:55:09;;;;;;;;;;;19.30;99.90;;;;;;4993627;28;19922;-88
2022/09/07 00:57:36;;;;;;;;;;;19.30;99.90;;;;;;4993208;28;19914;-85
2022/09/07 01:00:16;;;;;;;;;;;19.40;99.90;;;;;;5109313;27;19926;-82
2022/09/07 01:02:42;;;;;;;;;;;19.50;99.90;;;;;;5098738;28;19916;-82
2022/09/07 01:05:23;;;;;;;;;;;19.50;99.90;;;;;;5100407;28;19919;-81
2022/09/07 01:07:49;;;;;;;;;;;19.40;99.90;;;;;;5096145;28;19922;-82
2022/09/07 01:10:15;;;;;;;;;;;19.40;99.90;;;;;;5099091;28;20425;-81
2022/09/07 01:12:40;;;;;;;;;;;19.40;99.90;;;;;;5099081;28;20408;-81
2022/09/07 01:15:06;;;;;;;;;;;19.20;99.90;;;;;;5097939;28;19916;-82
2022/09/07 01:17:58;;;;;;;;;;;19.20;99.90;;;;;;5098984;28;19920;-82
2022/09/07 01:20:38;;;;;;;;;;;19.10;99.90;;;;;;5095751;28;19968;-82
2022/09/07 01:23:10;;;;;;;;;;;19.10;99.90;;;;;;5098338;28;19916;-81
2022/09/07 01:25:35;;;;;;;;;;;19.10;99.90;;;;;;5097045;28;19981;-81
2022/09/07 01:28:04;;;;;;;;;;;19.10;99.90;;;;;;5098288;28;19916;-81
2022/09/07 01:30:33;;;;;;;;;;;18.90;99.90;;;;;;5097867;28;19960;-82
2022/09/07 01:33:06;;;;;;;;;;;18.80;99.90;;;;;;5097717;28;19986;-82
2022/09/07 01:35:52;;;;;;;;;;;18.80;99.90;;;;;;5098182;28;19916;-80
2022/09/07 01:38:24;;;;;;;;;;;18.90;99.90;;;;;;5097325;28;20009;-81
2022/09/07 01:40:55;;;;;;;;;;;18.80;99.90;;;;;;5096459;28;19962;-82
2022/09/07 01:43:44;;;;;;;;;;;18.80;99.90;;;;;;5121299;27;19916;-82
2022/09/07 01:46:14;;;;;;;;;;;18.80;99.90;;;;;;5097296;28;20388;-81
2022/09/07 01:48:41;;;;;;;;;;;18.70;99.90;;;;;;5094153;28;19912;-81
2022/09/07 01:51:06;;;;;;;;;;;18.70;99.90;;;;;;5098610;28;19923;-81
2022/09/07 01:53:32;;;;;;;;;;;18.60;99.90;;;;;;5097800;28;20397;-81
2022/09/07 01:56:00;;;;;;;;;;;18.60;99.90;;;;;;5097445;28;19920;-82
2022/09/07 01:58:28;;;;;;;;;;;18.60;99.90;;;;;;5095993;28;19968;-81
2022/09/07 02:00:57;;;;;;;;;;;18.60;99.90;;;;;;5097947;28;19919;-82
2022/09/07 02:03:22;;;;;;;;;;;18.60;99.90;;;;;;5098503;28;19916;-83
2022/09/07 02:05:58;;;;;;;;;;;18.70;99.90;;;;;;5097855;28;20700;-81
2022/09/07 02:08:23;;;;;;;;;;;18.70;99.90;;;;;;5096894;28;19919;-81
2022/09/07 02:10:52;;;;;;;;;;;18.80;99.90;;;;;;5088664;28;19915;-81
2022/09/07 02:13:33;;;;;;;;;;;18.80;99.90;;;;;;5083840;28;19916;-82
2022/09/07 02:16:07;;;;;;;;;;;18.80;99.90;;;;;;5084774;28;19916;-82
2022/09/07 02:18:36;;;;;;;;;;;18.80;99.90;;;;;;5082770;28;20650;-82
2022/09/07 02:21:03;;;;;;;;;;;18.70;99.90;;;;;;5080822;28;19924;-81
2022/09/07 02:23:31;;;;;;;;;;;18.60;99.90;;;;;;5083796;28;19954;-81
2022/09/07 02:26:02;;;;;;;;;;;18.60;99.90;;;;;;5083752;28;20380;-82
2022/09/07 02:28:29;;;;;;;;;;;18.60;99.90;;;;;;5083760;28;19916;-81
2022/09/07 02:30:55;;;;;;;;;;;18.50;99.90;;;;;;5080315;28;20285;-81
2022/09/07 02:33:20;;;;;;;;;;;18.50;99.90;;;;;;5083753;28;19945;-82
2022/09/07 02:35:46;;;;;;;;;;;18.50;99.90;;;;;;5083909;28;20307;-81
2022/09/07 02:38:12;;;;;;;;;;;18.60;99.90;;;;;;5106433;27;19927;-81
2022/09/07 02:40:37;;;;;;;;;;;18.60;99.90;;;;;;5083567;28;19916;-82
2022/09/07 02:43:05;;;;;;;;;;;18.60;99.90;;;;;;5083274;28;19912;-81
2022/09/07 02:45:42;;;;;;;;;;;18.60;99.90;;;;;;5085325;28;20300;-81
2022/09/07 02:48:26;;;;;;;;;;;18.50;99.90;;;;;;5090558;27;19924;-81
2022/09/07 02:51:18;;;;;;;;;;;18.60;99.90;;;;;;5081326;28;20574;-81
2022/09/07 02:53:52;;;;;;;;;;;18.50;99.90;;;;;;5049183;28;19917;-81
2022/09/07 02:56:20;;;;;;;;;;;18.60;99.90;;;;;;5051594;28;20023;-82
2022/09/07 02:58:46;;;;;;;;;;;18.70;99.90;;;;;;5024672;28;19925;-81
2022/09/07 03:01:30;;;;;;;;;;;18.60;99.90;;;;;;5030303;28;19928;-81
2022/09/07 03:03:56;;;;;;;;;;;18.60;99.90;;;;;;5030259;28;20016;-81
2022/09/07 03:06:25;;;;;;;;;;;18.70;99.90;;;;;;5032646;28;20802;-81
2022/09/07 03:08:53;;;;;;;;;;;18.80;99.90;;;;;;5012313;28;19917;-82
2022/09/07 03:11:18;;;;;;;;;;;18.80;99.90;;;;;;5029272;28;19921;-83
2022/09/07 03:13:44;;;;;;;;;;;18.80;99.90;;;;;;5028553;28;19916;-82
2022/09/07 03:16:13;;;;;;;;;;;18.80;99.90;;;;;;5029071;28;19921;-81
2022/09/07 03:18:39;;;;;;;;;;;18.70;99.90;;;;;;5029188;28;20388;-82
2022/09/07 03:21:04;;;;;;;;;;;18.60;99.90;;;;;;5012063;28;19924;-82
2022/09/07 03:23:30;;;;;;;;;;;18.60;99.90;;;;;;5027609;28;20666;-82
2022/09/07 03:25:56;;;;;;;;;;;18.60;99.90;;;;;;5028264;28;19917;-81
2022/09/07 03:28:21;;;;;;;;;;;18.50;99.90;;;;;;5028681;28;19991;-81
2022/09/07 03:30:47;;;;;;;;;;;18.40;99.90;;;;;;5045500;28;20659;-81
2022/09/07 03:33:16;;;;;;;;;;;18.40;99.90;;;;;;5061576;28;20297;-81
2022/09/07 03:35:45;;;;;;;;;;;18.40;99.90;;;;;;5060996;28;19938;-81
2022/09/07 03:38:11;;;;;;;;;;;18.40;99.90;;;;;;5062541;28;19913;-82
2022/09/07 03:40:36;;;;;;;;;;;18.20;99.90;;;;;;5061511;28;20022;-82
2022/09/07 03:43:02;;;;;;;;;;;18.20;99.90;;;;;;5061190;28;19917;-81
2022/09/07 03:45:27;;;;;;;;;;;18.20;99.90;;;;;;5058908;28;19921;-81
2022/09/07 03:47:53;;;;;;;;;;;18.10;99.90;;;;;;5041536;28;19917;-80
2022/09/07 03:50:18;;;;;;;;;;;18.00;99.90;;;;;;5061494;28;19917;-82
2022/09/07 03:52:44;;;;;;;;;;;18.00;99.90;;;;;;5061685;28;20012;-82
2022/09/07 03:55:09;;;;;;;;;;;18.00;99.90;;;;;;5061918;28;19967;-80
2022/09/07 03:57:35;;;;;;;;;;;17.90;99.90;;;;;;5059777;28;19973;-82
2022/09/07 04:00:01;;;;;;;;;;;17.90;99.90;;;;;;5078840;28;19977;-82
2022/09/07 04:02:27;;;;;;;;;;;17.90;99.90;;;;;;5082074;28;19920;-83
2022/09/07 04:04:52;;;;;;;;;;;17.80;99.90;;;;;;5083702;28;19923;-82
2022/09/07 04:07:18;;;;;;;;;;;17.80;99.90;;;;;;5080106;28;19927;-81
2022/09/07 04:09:43;;;;;;;;;;;17.70;99.90;;;;;;5081325;28;19959;-80
2022/09/07 04:12:09;;;;;;;;;;;17.70;99.90;;;;;;5080873;28;19916;-81
2022/09/07 04:14:34;;;;;;;;;;;17.60;99.90;;;;;;5081081;28;20350;-81
2022/09/07 04:17:00;;;;;;;;;;;17.60;99.90;;;;;;5081720;28;20019;-80
2022/09/07 04:19:25;;;;;;;;;;;17.50;99.90;;;;;;5081627;28;19935;-81
2022/09/07 04:21:51;;;;;;;;;;;17.60;99.90;;;;;;5081599;28;19923;-82
2022/09/07 04:24:17;;;;;;;;;;;17.50;99.90;;;;;;5083742;28;20716;-82
2022/09/07 04:26:43;;;;;;;;;;;17.50;99.90;;;;;;5081102;28;19985;-81
2022/09/07 04:29:09;;;;;;;;;;;17.40;99.90;;;;;;5079802;28;20031;-81
2022/09/07 04:31:35;;;;;;;;;;;17.40;99.90;;;;;;5079360;28;20014;-81
2022/09/07 04:34:00;;;;;;;;;;;17.50;99.90;;;;;;5079241;28;19950;-82
2022/09/07 04:36:26;;;;;;;;;;;17.60;99.90;;;;;;5079346;28;19923;-82
2022/09/07 04:38:53;;;;;;;;;;;17.60;99.90;;;;;;5080865;28;20736;-81
2022/09/07 04:41:19;;;;;;;;;;;17.50;99.90;;;;;;5080424;28;19920;-83
2022/09/07 04:43:45;;;;;;;;;;;17.40;99.90;;;;;;5081107;28;19954;-82
2022/09/07 04:46:17;;;;;;;;;;;17.40;99.90;;;;;;5079382;28;19916;-82
2022/09/07 04:48:42;;;;;;;;;;;17.40;99.90;;;;;;5080032;28;19924;-83
2022/09/07 04:51:09;;;;;;;;;;;17.40;99.90;;;;;;5079532;28;19946;-82
2022/09/07 04:53:35;;;;;;;;;;;17.40;99.90;;;;;;5082324;28;19968;-82
2022/09/07 04:56:00;;;;;;;;;;;17.40;99.90;;;;;;5079846;28;19912;-82
2022/09/07 04:58:26;;;;;;;;;;;17.40;99.90;;;;;;5079761;28;19939;-82
2022/09/07 05:00:51;;;;;;;;;;;17.50;99.90;;;;;;5079658;28;20015;-82
2022/09/07 05:03:17;;;;;;;;;;;17.50;99.90;;;;;;5080813;28;19920;-81
2022/09/07 05:05:43;;;;;;;;;;;17.60;99.90;;;;;;5078355;28;19919;-83
2022/09/07 05:08:09;;;;;;;;;;;17.60;99.90;;;;;;5077348;28;20711;-82
2022/09/07 05:10:35;;;;;;;;;;;17.70;99.90;;;;;;5075369;28;19921;-83
2022/09/07 05:13:01;;;;;;;;;;;17.70;99.90;;;;;;5077059;28;20459;-84
2022/09/07 05:15:27;;;;;;;;;;;17.80;99.90;;;;;;5077371;28;19916;-83
2022/09/07 05:17:53;;;;;;;;;;;17.80;99.90;;;;;;5076021;28;20190;-83
2022/09/07 05:20:19;;;;;;;;;;;17.80;99.90;;;;;;5062964;28;20483;-83
2022/09/07 05:22:45;;;;;;;;;;;17.70;99.90;;;;;;5063252;28;19908;-83
2022/09/07 05:25:11;;;;;;;;;;;17.60;99.90;;;;;;5064448;28;19919;-83
2022/09/07 05:27:36;;;;;;;;;;;17.70;99.90;;;;;;5062384;28;19967;-82
2022/09/07 05:30:02;;;;;;;;;;;17.70;99.90;;;;;;5065433;28;20396;-82
2022/09/07 05:32:28;;;;;;;;;;;17.80;99.90;;;;;;5062644;28;20011;-82
2022/09/07 05:34:53;;;;;;;;;;;17.80;99.90;;;;;;5065465;28;19912;-82
2022/09/07 05:37:19;;;;;;;;;;;17.80;99.90;;;;;;5082240;28;19958;-82
2022/09/07 05:39:44;;;;;;;;;;;18.30;99.90;;;;;;5082508;28;20286;-82
2022/09/07 05:42:10;;;;;;;;;;;18.70;99.90;;;;;;5072417;28;19954;-82
2022/09/07 05:44:35;;;;;;;;;;;18.90;99.90;;;;;;5080369;28;19986;-83
2022/09/07 05:47:01;;;;;;;;;;;18.70;99.90;;;;;;5083952;28;19916;-83
2022/09/07 05:49:26;;;;;;;;;;;18.60;99.90;;;;;;5084761;28;19920;-85
2022/09/07 05:51:52;;;;;;;;;;;18.60;99.90;;;;;;5085562;28;19966;-84
2022/09/07 05:54:18;;;;;;;;;;;19.00;99.90;;;;;;5079377;28;19976;-84
2022/09/07 05:56:43;;;;;;;;;;;19.30;99.90;;;;;;5060103;28;19921;-83
2022/09/07 05:59:09;;;;;;;;;;;19.40;99.90;;;;;;5080876;28;20023;-85
2022/09/07 06:01:35;;;;;;;;;;;19.20;99.90;;;;;;5082630;28;19916;-85
2022/09/07 06:04:00;;;;;;;;;;;19.30;99.90;;;;;;5067208;28;19912;-84
2022/09/07 06:06:26;;;;;;;;;;;18.60;99.90;;;;;;5078614;28;19975;-84
2022/09/07 06:08:52;;;;;;;;;;;18.20;99.90;;;;;;5087285;28;20713;-84
2022/09/07 06:11:19;;;;;;;;;;;18.30;99.90;;;;;;5086785;28;20002;-83
2022/09/07 06:13:44;;;;;;;;;;;18.40;99.90;;;;;;5087187;28;19966;-83
2022/09/07 06:16:11;;;;;;;;;;;18.40;99.90;;;;;;5086752;28;20367;-83
2022/09/07 06:18:37;;;;;;;;;;;18.80;99.90;;;;;;5087087;28;19924;-83
2022/09/07 06:21:04;;;;;;;;;;;18.70;99.90;;;;;;5085473;28;19919;-84
2022/09/07 06:23:30;;;;;;;;;;;18.90;99.90;;;;;;5085781;28;19916;-84
2022/09/07 06:25:55;;;;;;;;;;;18.80;99.90;;;;;;5084883;28;20368;-82
2022/09/07 06:28:26;;;;;;;;;;;18.90;99.90;;;;;;5082990;28;20003;-84
2022/09/07 06:30:51;;;;;;;;;;;18.70;99.90;;;;;;5086924;28;20019;-83
2022/09/07 06:33:17;;;;;;;;;;;18.60;99.90;;;;;;5070583;28;19987;-83
2022/09/07 06:35:42;;;;;;;;;;;18.80;99.90;;;;;;5066447;28;19920;-85
2022/09/07 06:38:08;;;;;;;;;;;18.70;99.90;;;;;;5066303;28;20887;-86
2022/09/07 06:40:34;;;;;;;;;;;18.40;99.90;;;;;;5101985;27;19916;-84
2022/09/07 06:43:00;;;;;;;;;;;18.50;99.90;;;;;;5072207;28;20403;-84
2022/09/07 06:45:25;;;;;;;;;;;18.60;99.90;;;;;;5066766;28;19908;-82
2022/09/07 06:47:52;;;;;;;;;;;18.80;99.90;;;;;;5074914;28;19912;-84
2022/09/07 06:50:17;;;;;;;;;;;19.00;99.90;;;;;;5081409;28;20430;-85
2022/09/07 06:52:43;;;;;;;;;;;19.00;99.90;;;;;;5076250;28;19920;-84
2022/09/07 06:55:08;;;;;;;;;;;18.70;99.90;;;;;;5082977;28;19920;-83
2022/09/07 06:57:34;;;;;;;;;;;18.70;99.90;;;;;;5079395;28;19955;-84
2022/09/07 06:59:59;;;;;;;;;;;18.70;99.90;;;;;;5082570;28;19924;-84
2022/09/07 07:02:25;;;;;;;;;;;18.90;99.90;;;;;;5081344;28;20396;-83
2022/09/07 07:04:50;;;;;;;;;;;19.40;99.90;;;;;;5076716;28;19923;-83
2022/09/07 07:07:16;;;;;;;;;;;19.70;99.90;;;;;;5081839;28;19927;-84
2022/09/07 07:09:41;;;;;;;;;;;19.90;99.90;;;;;;5082705;28;19924;-83
2022/09/07 07:12:07;;;;;;;;;;;20.10;99.90;;;;;;5080814;28;19943;-85
2022/09/07 07:14:34;;;;;;;;;;;19.70;99.90;;;;;;5078492;28;19961;-84
2022/09/07 07:17:00;;;;;;;;;;;19.90;99.90;;;;;;5076687;28;20022;-85
2022/09/07 07:19:25;;;;;;;;;;;20.00;99.90;;;;;;5065817;28;20067;-85
2022/09/07 07:21:51;;;;;;;;;;;20.20;99.90;;;;;;5065591;28;20715;-84
2022/09/07 07:24:16;;;;;;;;;;;20.30;99.90;;;;;;5064122;28;19917;-86
2022/09/07 07:26:47;;;;;;;;;;;21.20;99.90;;;;;;5065680;28;20456;-88
2022/09/07 07:29:13;;;;;;;;;;;21.70;99.90;;;;;;5066982;28;19994;-81
2022/09/07 07:31:38;;;;;;;;;;;21.50;99.90;;;;;;5068198;28;19966;-84
2022/09/07 07:34:04;;;;;;;;;;;21.80;99.90;;;;;;5076075;28;20366;-86
2022/09/07 07:36:29;;;;;;;;;;;21.50;99.90;;;;;;5065535;28;20007;-85
2022/09/07 07:38:55;;;;;;;;;;;21.90;99.90;;;;;;5097931;28;20031;-82
2022/09/07 07:41:22;;;;;;;;;;;21.50;99.90;;;;;;5101263;27;19916;-83
2022/09/07 07:43:51;;;;;;;;;;;21.90;99.90;;;;;;5081652;28;19942;-85
2022/09/07 07:46:17;;;;;;;;;;;21.00;99.90;;;;;;5083783;28;20361;-81
2022/09/07 07:48:46;;;;;;;;;;;20.20;99.90;;;;;;5085139;28;19923;-82
2022/09/07 07:51:12;;;;;;;;;;;19.90;99.90;;;;;;5080623;28;20395;-81
2022/09/07 07:53:38;;;;;;;;;;;20.00;99.90;;;;;;5085364;28;19950;-81
2022/09/07 07:56:04;;;;;;;;;;;19.90;99.90;;;;;;5081047;28;19916;-83
2022/09/07 07:58:30;;;;;;;;;;;19.90;99.90;;;;;;5083202;28;19924;-81
2022/09/07 08:01:00;;;;;;;;;;;20.10;99.90;;;;;;5078219;28;19970;-82
2022/09/07 08:03:26;;;;;;;;;;;20.60;99.90;;;;;;5080841;28;19912;-82
2022/09/07 08:05:52;;;;;;;;;;;21.80;99.90;;;;;;5079744;28;19958;-83
2022/09/07 08:08:17;;;;;;;;;;;22.00;99.90;;;;;;5081901;28;19958;-83
2022/09/07 08:10:44;;;;;;;;;;;22.30;99.90;;;;;;5068403;28;19916;-81
2022/09/07 08:13:10;;;;;;;;;;;22.10;99.90;;;;;;5069927;28;19917;-81
2022/09/07 08:15:44;;;;;;;;;;;22.00;99.90;;;;;;5081946;28;19919;-82
2022/09/07 08:18:11;;;;;;;;;;;21.90;99.90;;;;;;5075479;28;20023;-82
2022/09/07 08:20:36;;;;;;;;;;;22.00;99.90;;;;;;5084903;28;19919;-83
2022/09/07 08:23:02;;;;;;;;;;;22.00;99.90;;;;;;5082724;28;19920;-82
2022/09/07 08:25:27;;;;;;;;;;;22.30;99.90;;;;;;5084126;28;19923;-81
2022/09/07 08:27:53;;;;;;;;;;;22.20;99.90;;;;;;5081154;28;19966;-81
2022/09/07 08:30:19;;;;;;;;;;;22.10;99.90;;;;;;5082873;28;19916;-81
2022/09/07 08:32:45;;;;;;;;;;;21.80;99.90;;;;;;5083906;28;19920;-81
2022/09/07 08:35:11;;;;;;;;;;;21.80;99.90;;;;;;5067294;28;19943;-82
2022/09/07 08:37:36;;;;;;;;;;;21.60;99.90;;;;;;5096041;28;20026;-81
2022/09/07 08:40:02;;;;;;;;;;;21.80;99.90;;;;;;5064039;28;20023;-81
2022/09/07 08:42:50;;;;;;;;;;;22.20;99.90;;;;;;5064069;28;19917;-81
2022/09/07 08:45:19;;;;;;;;;;;22.50;99.90;;;;;;5063283;28;19916;-82
2022/09/07 08:47:47;;;;;;;;;;;22.90;99.90;;;;;;5064077;28;19995;-81
2022/09/07 08:50:17;;;;;;;;;;;22.80;99.90;;;;;;5064281;28;19912;-81
2022/09/07 08:53:03;;;;;;;;;;;22.70;99.90;;;;;;5064213;28;19935;-82
2022/09/07 08:55:30;;;;;;;;;;;22.50;99.90;;;;;;5060063;28;19924;-81
2022/09/07 08:58:15;;;;;;;;;;;22.40;99.90;;;;;;5063635;28;19951;-81
2022/09/07 09:00:40;;;;;;;;;;;22.60;99.90;;;;;;5063774;28;19920;-82
2022/09/07 09:03:13;;;;;;;;;;;25.40;99.90;;;;;;5064230;28;19919;-83
2022/09/07 09:05:45;;;;;;;;;;;26.20;99.90;;;;;;5064908;28;19916;-83
2022/09/07 09:08:19;;;;;;;;;;;24.70;99.90;;;;;;5064327;28;19920;-81
2022/09/07 09:11:00;;;;;;;;;;;23.80;99.90;;;;;;5057207;28;19992;-82
2022/09/07 09:13:44;;;;;;;;;;;23.60;99.90;;;;;;5043435;28;20453;-81
2022/09/07 09:16:21;;;;;;;;;;;23.50;99.90;;;;;;5043648;28;19916;-82
2022/09/07 09:18:54;;;;;;;;;;;23.50;99.90;;;;;;5043656;28;20366;-83
2022/09/07 09:21:20;;;;;;;;;;;23.90;99.90;;;;;;5045898;28;20417;-81
2022/09/07 09:23:47;;;;;;;;;;;24.90;99.90;;;;;;5047966;28;19915;-81
2022/09/07 09:26:23;;;;;;;;;;;24.60;99.90;;;;;;5029917;28;19912;-82
2022/09/07 09:28:49;;;;;;;;;;;25.10;99.90;;;;;;5048066;28;19919;-81
2022/09/07 09:31:17;;;;;;;;;;;26.30;99.90;;;;;;5061150;28;19912;-81
2022/09/07 09:33:42;;;;;;;;;;;26.90;99.90;;;;;;5067126;28;19916;-82
2022/09/07 09:36:21;;;;;;;;;;;27.30;99.90;;;;;;5067729;28;19913;-82
2022/09/07 09:38:47;;;;;;;;;;;26.60;99.90;;;;;;5066567;28;19916;-82
2022/09/07 09:41:13;;;;;;;;;;;26.50;99.90;;;;;;5069899;28;20293;-82
2022/09/07 09:43:44;;;;;;;;;;;25.80;99.90;;;;;;5065343;28;19940;-82
2022/09/07 09:46:30;;;;;;;;;;;25.30;99.90;;;;;;5063377;28;19927;-82
2022/09/07 09:49:01;;;;;;;;;;;25.00;99.90;;;;;;5051932;28;19927;-82
2022/09/07 09:51:30;;;;;;;;;;;24.60;99.90;;;;;;5063680;28;19917;-82
2022/09/07 09:53:58;;;;;;;;;;;24.80;99.90;;;;;;5064784;28;20008;-83
2022/09/07 09:56:35;;;;;;;;;;;25.80;99.90;;;;;;5048263;28;19913;-83
2022/09/07 09:59:18;;;;;;;;;;;25.50;99.90;;;;;;5063101;28;19977;-83
2022/09/07 10:01:45;;;;;;;;;;;25.10;99.90;;;;;;5082010;28;20514;-83
2022/09/07 10:04:36;;;;;;;;;;;24.80;99.90;;;;;;5085816;28;20422;-82
2022/09/07 10:07:14;;;;;;;;;;;24.60;99.90;;;;;;5054598;28;19922;-83
2022/09/07 10:09:41;;;;;;;;;;;24.50;99.90;;;;;;5054548;28;19916;-83
2022/09/07 10:12:19;;;;;;;;;;;24.50;99.90;;;;;;5066463;28;19917;-82
2022/09/07 10:14:45;;;;;;;;;;;24.70;99.90;;;;;;5067717;28;19916;-82
2022/09/07 10:17:29;;;;;;;;;;;24.70;99.90;;;;;;5087065;28;19919;-82
2022/09/07 10:20:19;;;;;;;;;;;24.70;99.90;;;;;;5069624;28;19920;-83
2022/09/07 10:22:45;;;;;;;;;;;24.80;99.90;;;;;;5079025;28;19916;-83
2022/09/07 10:25:29;;;;;;;;;;;24.90;99.90;;;;;;5084465;28;20021;-83
2022/09/07 10:28:01;;;;;;;;;;;25.10;99.90;;;;;;5084470;28;19916;-83
2022/09/07 10:30:28;;;;;;;;;;;25.40;99.90;;;;;;5086606;28;19923;-83
2022/09/07 10:32:56;;;;;;;;;;;25.90;99.90;;;;;;5086459;28;20282;-83
2022/09/07 10:35:25;;;;;;;;;;;25.90;99.90;;;;;;5086962;28;19912;-82
2022/09/07 10:38:05;;;;;;;;;;;25.40;99.90;;;;;;5086161;28;19916;-82
2022/09/07 10:40:50;;;;;;;;;;;25.10;99.90;;;;;;5067183;28;20589;-83
2022/09/07 10:43:35;;;;;;;;;;;25.00;99.90;;;;;;5065785;28;19913;-82
2022/09/07 10:46:09;;;;;;;;;;;25.10;99.90;;;;;;5066152;28;19912;-82
2022/09/07 10:49:11;;;;;;;;;;;25.00;99.90;;;;;;5066287;28;19952;-83
2022/09/07 10:51:42;;;;;;;;;;;25.40;99.90;;;;;;5039182;28;19913;-83
2022/09/07 10:54:17;;;;;;;;;;;25.60;99.90;;;;;;5027966;28;19956;-82
2022/09/07 10:56:42;;;;;;;;;;;25.50;99.90;;;;;;5022064;28;19920;-84
2022/09/07 10:59:30;;;;;;;;;;;25.70;99.90;;;;;;5027217;28;19924;-82
2022/09/07 11:02:04;;;;;;;;;;;25.30;99.90;;;;;;5023035;28;19962;-82
2022/09/07 11:04:48;;;;;;;;;;;25.80;99.90;;;;;;5040882;28;19916;-83
2022/09/07 11:07:17;;;;;;;;;;;25.90;99.90;;;;;;5042098;28;20752;-83
2022/09/07 11:09:53;;;;;;;;;;;26.10;99.90;;;;;;5042146;28;19919;-83
2022/09/07 11:12:22;;;;;;;;;;;25.90;99.90;;;;;;5038441;28;19921;-82
2022/09/07 11:14:50;;;;;;;;;;;25.50;99.90;;;;;;5037721;28;19971;-83
2022/09/07 11:17:17;;;;;;;;;;;25.70;99.90;;;;;;5042210;28;19916;-83
2022/09/07 11:19:46;;;;;;;;;;;25.70;99.90;;;;;;5041987;28;19925;-82
2022/09/07 11:22:21;;;;;;;;;;;25.90;99.90;;;;;;5039707;28;19952;-83
2022/09/07 11:24:50;;;;;;;;;;;26.10;99.90;;;;;;5044482;28;19995;-82
2022/09/07 11:27:29;;;;;;;;;;;25.80;99.90;;;;;;5069690;28;19961;-82
2022/09/07 11:30:03;;;;;;;;;;;25.80;99.90;;;;;;5086039;28;20536;-82
2022/09/07 11:32:30;;;;;;;;;;;26.10;99.90;;;;;;5084421;28;20081;-81
2022/09/07 11:35:00;;;;;;;;;;;25.80;99.90;;;;;;5053571;28;20305;-81
2022/09/07 11:37:29;;;;;;;;;;;26.10;99.90;;;;;;5075487;28;19916;-83
2022/09/07 11:40:20;;;;;;;;;;;26.20;99.90;;;;;;5069301;28;20786;-83
2022/09/07 11:42:51;;;;;;;;;;;26.10;99.90;;;;;;5067305;28;19970;-82
2022/09/07 11:45:26;;;;;;;;;;;25.90;99.90;;;;;;5064912;28;19927;-83
2022/09/07 11:47:58;;;;;;;;;;;25.30;99.90;;;;;;5064906;28;19966;-83
2022/09/07 11:50:25;;;;;;;;;;;25.60;99.90;;;;;;5066084;28;19917;-83
2022/09/07 11:53:03;;;;;;;;;;;25.90;99.90;;;;;;5063950;28;19939;-81
2022/09/07 11:55:32;;;;;;;;;;;26.20;99.90;;;;;;5065817;28;20796;-83
2022/09/07 11:58:16;;;;;;;;;;;26.40;99.90;;;;;;5066299;28;19912;-81
2022/09/07 12:01:09;;;;;;;;;;;26.70;99.90;;;;;;5064758;28;19968;-82
2022/09/07 12:03:34;;;;;;;;;;;26.80;99.90;;;;;;5064855;28;20010;-82
2022/09/07 12:06:15;;;;;;;;;;;27.00;99.90;;;;;;5060886;28;19909;-81
2022/09/07 12:08:43;;;;;;;;;;;27.10;99.90;;;;;;5063556;28;19995;-81
2022/09/07 12:11:33;;;;;;;;;;;26.80;99.90;;;;;;5062582;28;19916;-83
2022/09/07 12:13:59;;;;;;;;;;;26.80;99.90;;;;;;5062344;28;19912;-82
2022/09/07 12:16:43;;;;;;;;;;;26.80;99.90;;;;;;5096881;27;19917;-82
2022/09/07 12:19:09;;;;;;;;;;;26.80;99.90;;;;;;5063640;28;20385;-83
2022/09/07 12:21:34;;;;;;;;;;;26.70;99.90;;;;;;5063293;28;20006;-82
2022/09/07 12:24:00;;;;;;;;;;;27.10;99.90;;;;;;5062730;28;20392;-82
2022/09/07 12:26:31;;;;;;;;;;;27.20;99.90;;;;;;5063730;28;19912;-83
2022/09/07 12:28:57;;;;;;;;;;;27.00;99.90;;;;;;5054416;28;20273;-82
2022/09/07 12:31:40;;;;;;;;;;;27.00;99.90;;;;;;5048483;28;19923;-82
2022/09/07 12:34:25;;;;;;;;;;;26.80;99.90;;;;;;5046825;28;19917;-82
2022/09/07 12:36:50;;;;;;;;;;;26.90;99.90;;;;;;5063217;28;19912;-81
2022/09/07 12:39:18;;;;;;;;;;;26.70;99.90;;;;;;5062992;28;19926;-82
2022/09/07 12:41:45;;;;;;;;;;;26.60;99.90;;;;;;5063498;28;19912;-82
2022/09/07 12:44:15;;;;;;;;;;;26.80;99.90;;;;;;5060455;28;19916;-81
2022/09/07 12:46:43;;;;;;;;;;;26.50;99.90;;;;;;5049843;28;19988;-82
2022/09/07 12:49:27;;;;;;;;;;;26.30;99.90;;;;;;5057720;28;19916;-83
2022/09/07 12:52:06;;;;;;;;;;;26.60;99.90;;;;;;5064260;28;20333;-82
2022/09/07 12:54:47;;;;;;;;;;;26.50;99.90;;;;;;5064047;28;19921;-81
2022/09/07 12:57:15;;;;;;;;;;;26.60;99.90;;;;;;5064002;28;19920;-81
2022/09/07 12:59:47;;;;;;;;;;;27.00;99.90;;;;;;5063391;28;19977;-83
2022/09/07 13:02:19;;;;;;;;;;;26.90;99.90;;;;;;5045747;28;19920;-81
2022/09/07 13:05:03;;;;;;;;;;;26.50;99.90;;;;;;5064364;28;19912;-82
2022/09/07 13:07:41;;;;;;;;;;;26.70;99.90;;;;;;5060988;28;19943;-83
2022/09/07 13:10:27;;;;;;;;;;;26.60;99.90;;;;;;5025747;28;19920;-82
2022/09/07 13:12:58;;;;;;;;;;;26.70;99.90;;;;;;5042735;28;20435;-82
2022/09/07 13:15:42;;;;;;;;;;;26.80;99.90;;;;;;5044304;28;19912;-82
2022/09/07 13:18:11;;;;;;;;;;;27.00;99.90;;;;;;5043326;28;19913;-81
2022/09/07 13:20:37;;;;;;;;;;;26.80;99.90;;;;;;5043722;28;19947;-82
2022/09/07 13:23:24;;;;;;;;;;;26.50;99.90;;;;;;5043351;28;19912;-82
2022/09/07 13:25:52;;;;;;;;;;;26.60;99.90;;;;;;5043480;28;19913;-82
2022/09/07 13:28:20;;;;;;;;;;;26.60;99.90;;;;;;5043755;28;20024;-82
2022/09/07 13:30:49;;;;;;;;;;;26.60;99.90;;;;;;5044619;28;19913;-82
2022/09/07 13:33:23;;;;;;;;;;;26.50;99.90;;;;;;5043725;28;19966;-82
2022/09/07 13:35:51;;;;;;;;;;;26.70;99.90;;;;;;5043780;28;20276;-82
2022/09/07 13:38:18;;;;;;;;;;;26.80;99.90;;;;;;5043580;28;20381;-82
2022/09/07 13:40:45;;;;;;;;;;;27.00;99.90;;;;;;5043671;28;19920;-82
2022/09/07 13:43:15;;;;;;;;;;;26.70;99.90;;;;;;5025936;28;19952;-81
2022/09/07 13:45:52;;;;;;;;;;;26.60;99.90;;;;;;5042668;28;19917;-81
2022/09/07 13:48:33;;;;;;;;;;;26.40;99.90;;;;;;5059004;28;19912;-82
2022/09/07 13:51:04;;;;;;;;;;;26.10;99.90;;;;;;5042890;28;19917;-81
2022/09/07 13:53:36;;;;;;;;;;;26.00;99.90;;;;;;5043512;28;20390;-82
2022/09/07 13:56:20;;;;;;;;;;;25.80;99.90;;;;;;5041653;28;20007;-82
2022/09/07 13:58:48;;;;;;;;;;;25.60;99.90;;;;;;5050872;28;19955;-82
2022/09/07 14:01:16;;;;;;;;;;;25.90;99.90;;;;;;5043016;28;20376;-82
2022/09/07 14:03:51;;;;;;;;;;;26.00;99.90;;;;;;5059107;28;19916;-82
2022/09/07 14:06:19;;;;;;;;;;;26.10;99.70;;;;;;5064348;28;19920;-82
2022/09/07 14:08:49;;;;;;;;;;;26.30;99.70;;;;;;5066885;28;19944;-82
2022/09/07 14:11:25;;;;;;;;;;;26.60;99.90;;;;;;5064578;28;20019;-82
2022/09/07 14:14:09;;;;;;;;;;;26.50;99.70;;;;;;5076408;28;19920;-82
2022/09/07 14:16:35;;;;;;;;;;;26.10;99.80;;;;;;5079568;28;20444;-82
2022/09/07 14:19:01;;;;;;;;;;;25.90;99.90;;;;;;5085365;28;19993;-82
2022/09/07 14:21:26;;;;;;;;;;;25.80;99.90;;;;;;5068138;28;19927;-82
2022/09/07 14:23:52;;;;;;;;;;;25.80;99.70;;;;;;5066078;28;20701;-82
2022/09/07 14:26:21;;;;;;;;;;;25.50;99.90;;;;;;5070333;28;20377;-82
2022/09/07 14:28:51;;;;;;;;;;;25.60;99.90;;;;;;5074271;28;20365;-82
2022/09/07 14:31:18;;;;;;;;;;;25.60;99.90;;;;;;5065940;28;19963;-82